Time;durP1;ratioP1;P1;durP2;ratioP2;P2;SDS_P1;SDS_P2;PMS_P1;PMS_P2;Temp;Humidity;BMP_temperature;BMP_pressure;BME280_temperature;BME280_humidity;BME280_pressure;Samples;Min_cycle;Max_cycle;Signal;HPM_P1;HPM_P2
2022/10/09 00:01:04;;;;;;;9.90;4.68;;;8.30;99.90;;;;;;5036247;28;20029;-69
2022/10/09 00:03:30;;;;;;;5.85;4.10;;;8.30;99.90;;;;;;5035003;28;20031;-69
2022/10/09 00:05:55;;;;;;;6.22;4.25;;;8.20;99.90;;;;;;5016130;28;20025;-69
2022/10/09 00:08:21;;;;;;;6.05;3.40;;;8.40;99.90;;;;;;5016531;28;20021;-69
2022/10/09 00:10:47;;;;;;;9.35;4.35;;;8.50;99.90;;;;;;5033719;28;20105;-69
2022/10/09 00:13:13;;;;;;;6.45;3.70;;;8.50;99.90;;;;;;5015790;28;20097;-69
2022/10/09 00:15:41;;;;;;;7.35;3.60;;;8.30;99.90;;;;;;5016438;28;20137;-70
2022/10/09 00:18:08;;;;;;;10.10;4.03;;;8.30;99.90;;;;;;5016423;28;20060;-69
2022/10/09 00:20:38;;;;;;;7.53;4.32;;;8.20;99.90;;;;;;5034446;28;20427;-69
2022/10/09 00:23:04;;;;;;;5.68;3.42;;;8.20;99.90;;;;;;5017328;28;20025;-69
2022/10/09 00:25:30;;;;;;;9.32;3.95;;;8.20;99.90;;;;;;5016586;28;20032;-69
2022/10/09 00:27:57;;;;;;;7.22;3.92;;;8.30;99.90;;;;;;5034107;28;20029;-68
2022/10/09 00:30:22;;;;;;;5.13;3.38;;;8.30;99.90;;;;;;5016793;28;20068;-68
2022/10/09 00:32:48;;;;;;;8.85;4.07;;;8.20;99.90;;;;;;5018479;28;20026;-68
2022/10/09 00:35:13;;;;;;;7.22;3.85;;;8.10;99.90;;;;;;5016296;28;20026;-68
2022/10/09 00:37:39;;;;;;;8.35;3.80;;;8.00;99.90;;;;;;5016239;28;20108;-68
2022/10/09 00:40:05;;;;;;;8.82;3.80;;;8.00;99.90;;;;;;5016556;28;20029;-68
2022/10/09 00:42:30;;;;;;;8.38;3.88;;;7.90;99.90;;;;;;5033300;28;20029;-68
2022/10/09 00:45:19;;;;;;;11.85;3.90;;;7.90;99.90;;;;;;5016291;28;20072;-68
2022/10/09 00:47:58;;;;;;;8.98;5.10;;;7.80;99.90;;;;;;5016092;28;20049;-68
2022/10/09 00:50:37;;;;;;;11.25;5.32;;;7.70;99.90;;;;;;5033610;28;20025;-69
2022/10/09 00:53:02;;;;;;;11.80;5.35;;;7.60;99.90;;;;;;5015782;28;20022;-69
2022/10/09 00:55:29;;;;;;;7.35;4.53;;;7.60;99.90;;;;;;5016049;28;20028;-69
2022/10/09 00:57:57;;;;;;;6.40;4.43;;;7.50;99.90;;;;;;5022543;28;20017;-68
2022/10/09 01:00:23;;;;;;;7.35;4.55;;;7.50;99.90;;;;;;5053359;28;20056;-68
2022/10/09 01:02:49;;;;;;;10.52;4.45;;;7.50;99.90;;;;;;5051868;28;20017;-69
2022/10/09 01:05:15;;;;;;;6.97;3.83;;;7.50;99.90;;;;;;5018107;28;20021;-69
2022/10/09 01:07:46;;;;;;;9.15;4.15;;;7.50;99.90;;;;;;5015483;28;20031;-69
2022/10/09 01:10:38;;;;;;;7.70;4.18;;;7.50;99.90;;;;;;5015977;28;20603;-68
2022/10/09 01:13:30;;;;;;;10.65;4.55;;;7.40;99.90;;;;;;5016368;28;20026;-69
2022/10/09 01:16:00;;;;;;;;;;;7.40;99.90;;;;;;5029855;28;20057;-69
2022/10/09 01:18:34;;;;;;;6.68;4.57;;;7.50;99.90;;;;;;5031335;28;19905;-69
2022/10/09 01:21:03;;;;;;;13.60;5.43;;;7.50;99.90;;;;;;5016071;28;20025;-68
2022/10/09 01:23:57;;;;;;;7.28;4.75;;;7.40;99.90;;;;;;5015467;28;20036;-69
2022/10/09 01:27:01;;;;;;;10.60;5.00;;;7.40;99.90;;;;;;5033231;28;20072;-69
2022/10/09 01:29:37;;;;;;;6.97;4.85;;;7.40;99.90;;;;;;4998684;28;20091;-69
2022/10/09 01:32:04;;;;;;;7.88;4.70;;;7.30;99.90;;;;;;5033292;28;20060;-68
2022/10/09 01:34:31;;;;;;;6.15;4.30;;;7.10;99.90;;;;;;5015534;28;20045;-69
2022/10/09 01:36:57;;;;;;;15.18;5.45;;;7.10;99.90;;;;;;5040405;28;20036;-68
2022/10/09 01:39:31;;;;;;;6.00;4.30;;;7.10;99.90;;;;;;5041442;28;20052;-69
2022/10/09 01:41:57;;;;;;;10.43;4.50;;;7.10;99.90;;;;;;5033094;28;20037;-68
2022/10/09 01:44:26;;;;;;;11.23;4.03;;;7.20;99.90;;;;;;5034239;28;20076;-69
2022/10/09 01:46:52;;;;;;;5.38;3.67;;;7.20;99.90;;;;;;5035979;28;20025;-68
2022/10/09 01:49:40;;;;;;;7.30;3.22;;;7.30;99.90;;;;;;5055649;28;20078;-69
2022/10/09 01:52:29;;;;;;;5.80;3.50;;;7.40;99.90;;;;;;5077039;28;20016;-68
2022/10/09 01:55:20;;;;;;;7.80;3.45;;;7.50;99.90;;;;;;5053684;28;20100;-68
2022/10/09 01:58:06;;;;;;;8.30;3.67;;;7.50;99.90;;;;;;5010837;28;20038;-69
2022/10/09 02:00:35;;;;;;;4.90;3.63;;;7.50;99.90;;;;;;5020440;28;20037;-69
2022/10/09 02:03:05;;;;;;;8.05;3.83;;;7.40;99.90;;;;;;5046533;28;20032;-69
2022/10/09 02:05:31;;;;;;;6.30;3.95;;;7.40;99.90;;;;;;5019804;28;20033;-68
2022/10/09 02:07:57;;;;;;;12.27;3.90;;;7.40;99.90;;;;;;5018885;28;20029;-70
2022/10/09 02:10:24;;;;;;;7.32;3.85;;;7.50;99.90;;;;;;5018867;28;20108;-69
2022/10/09 02:12:54;;;;;;;6.10;4.18;;;7.40;99.90;;;;;;5018828;28;20068;-68
2022/10/09 02:15:23;;;;;;;9.27;3.38;;;7.50;99.90;;;;;;5019346;28;20468;-69
2022/10/09 02:17:53;;;;;;;5.05;3.42;;;7.40;99.90;;;;;;5019060;28;20112;-69
2022/10/09 02:20:27;;;;;;;9.80;4.53;;;7.30;99.90;;;;;;5018968;28;20028;-69
2022/10/09 02:22:55;;;;;;;9.32;3.42;;;7.10;99.90;;;;;;5043843;28;20104;-69
2022/10/09 02:25:21;;;;;;;6.88;3.97;;;7.10;99.90;;;;;;5038707;28;20071;-68
2022/10/09 02:27:47;;;;;;;7.93;3.83;;;7.00;99.90;;;;;;5038429;28;20103;-68
2022/10/09 02:30:14;;;;;;;9.07;3.75;;;7.10;99.90;;;;;;5038314;28;20075;-68
2022/10/09 02:32:40;;;;;;;6.82;3.80;;;7.00;99.90;;;;;;5038430;28;20025;-68
2022/10/09 02:35:07;;;;;;;7.80;3.33;;;7.00;99.90;;;;;;5056293;28;20028;-69
2022/10/09 02:37:32;;;;;;;8.25;3.50;;;7.00;99.90;;;;;;5056178;28;20063;-68
2022/10/09 02:39:58;;;;;;;7.25;3.78;;;7.00;99.90;;;;;;5041038;28;20056;-69
2022/10/09 02:42:24;;;;;;;4.65;3.50;;;6.90;99.90;;;;;;5035924;28;20070;-68
2022/10/09 02:44:50;;;;;;;5.28;3.70;;;6.90;99.90;;;;;;5019647;28;20032;-68
2022/10/09 02:47:16;;;;;;;6.95;3.95;;;6.80;99.90;;;;;;5018225;28;20022;-68
2022/10/09 02:49:41;;;;;;;8.98;3.88;;;6.90;99.90;;;;;;5053586;28;20029;-69
2022/10/09 02:52:07;;;;;;;5.00;3.33;;;6.90;99.90;;;;;;5039158;28;20081;-68
2022/10/09 02:54:33;;;;;;;5.57;3.15;;;6.80;99.90;;;;;;5037859;28;20021;-68
2022/10/09 02:56:58;;;;;;;6.43;3.45;;;6.80;99.90;;;;;;5037947;28;20021;-68
2022/10/09 02:59:24;;;;;;;6.50;3.17;;;6.70;99.90;;;;;;5024696;28;20096;-68
2022/10/09 03:01:49;;;;;;;5.93;3.20;;;6.60;99.90;;;;;;5019017;28;20031;-69
2022/10/09 03:04:15;;;;;;;4.88;3.63;;;6.80;99.90;;;;;;5041394;28;20124;-68
2022/10/09 03:06:40;;;;;;;6.80;3.08;;;6.80;99.90;;;;;;5035823;28;20025;-68
2022/10/09 03:09:06;;;;;;;11.80;3.47;;;6.90;99.90;;;;;;5036230;28;20049;-68
2022/10/09 03:11:31;;;;;;;7.80;3.20;;;6.80;99.90;;;;;;5035983;28;20100;-68
2022/10/09 03:13:57;;;;;;;7.60;3.53;;;6.80;99.90;;;;;;5018047;28;20029;-68
2022/10/09 03:16:24;;;;;;;7.88;3.63;;;6.90;99.90;;;;;;5018241;28;20021;-68
2022/10/09 03:18:51;;;;;;;7.63;4.60;;;6.90;99.90;;;;;;5035510;28;20113;-69
2022/10/09 03:21:22;;;;;;;9.50;3.65;;;7.00;99.90;;;;;;5017439;28;20029;-68
2022/10/09 03:23:49;;;;;;;5.93;3.05;;;7.00;99.90;;;;;;5024150;28;20507;-69
2022/10/09 03:26:17;;;;;;;8.48;4.20;;;7.20;99.90;;;;;;5018000;28;20026;-68
2022/10/09 03:28:46;;;;;;;13.68;4.18;;;7.10;99.90;;;;;;5026927;28;20021;-68
2022/10/09 03:31:16;;;;;;;10.52;3.85;;;7.10;99.90;;;;;;5037544;28;20079;-69
2022/10/09 03:33:42;;;;;;;11.93;4.80;;;7.10;99.90;;;;;;5037522;28;20027;-69
2022/10/09 03:36:09;;;;;;;15.50;4.45;;;7.10;99.90;;;;;;5055573;28;20037;-69
2022/10/09 03:38:34;;;;;;;9.05;3.90;;;7.00;99.90;;;;;;5037209;28;20075;-69
2022/10/09 03:41:01;;;;;;;9.93;4.50;;;7.00;99.90;;;;;;5037670;28;20103;-69
2022/10/09 03:43:27;;;;;;;7.60;4.03;;;7.00;99.90;;;;;;5022244;28;20056;-69
2022/10/09 03:45:54;;;;;;;14.38;5.05;;;7.00;99.90;;;;;;5026779;28;20427;-68
2022/10/09 03:48:19;;;;;;;9.85;3.80;;;6.90;99.90;;;;;;5023645;28;20022;-69
2022/10/09 03:50:45;;;;;;;7.80;3.90;;;6.90;99.90;;;;;;5034814;28;20036;-68
2022/10/09 03:53:12;;;;;;;8.32;4.82;;;6.90;99.90;;;;;;5017038;28;20476;-68
2022/10/09 03:55:38;;;;;;;15.70;4.47;;;6.80;99.90;;;;;;5017081;28;20459;-68
2022/10/09 03:58:04;;;;;;;6.50;4.10;;;6.80;99.90;;;;;;5016971;28;20025;-68
2022/10/09 04:00:30;;;;;;;10.88;4.03;;;6.80;99.90;;;;;;5016735;28;20031;-70
2022/10/09 04:02:55;;;;;;;6.75;3.70;;;6.80;99.90;;;;;;5033861;28;20037;-69
2022/10/09 04:05:21;;;;;;;8.00;4.00;;;6.80;99.90;;;;;;5054424;28;20051;-68
2022/10/09 04:07:47;;;;;;;9.30;4.20;;;6.80;99.90;;;;;;5029237;28;20097;-68
2022/10/09 04:10:12;;;;;;;10.68;4.10;;;6.80;99.90;;;;;;5034389;28;20028;-68
2022/10/09 04:12:38;;;;;;;11.63;4.03;;;7.00;99.90;;;;;;5019599;28;20044;-71
2022/10/09 04:15:04;;;;;;;7.60;3.42;;;7.10;99.90;;;;;;5019823;28;20018;-71
2022/10/09 04:17:30;;;;;;;7.55;3.70;;;7.10;99.90;;;;;;5036916;28;20026;-71
2022/10/09 04:19:56;;;;;;;7.03;4.20;;;7.20;99.90;;;;;;5039164;28;20033;-69
2022/10/09 04:22:21;;;;;;;4.45;3.30;;;7.10;99.90;;;;;;5039794;28;20025;-71
2022/10/09 04:24:47;;;;;;;6.85;3.55;;;7.20;99.90;;;;;;5038289;28;20059;-71
2022/10/09 04:27:12;;;;;;;10.15;4.25;;;7.20;99.90;;;;;;5052547;28;20029;-70
2022/10/09 04:29:38;;;;;;;6.75;3.75;;;7.20;99.90;;;;;;5019810;28;20037;-71
2022/10/09 04:32:05;;;;;;;6.50;4.10;;;7.20;99.90;;;;;;5034164;28;20026;-70
2022/10/09 04:34:31;;;;;;;5.10;3.58;;;7.20;99.90;;;;;;5016403;28;20048;-70
2022/10/09 04:36:56;;;;;;;6.68;3.95;;;7.10;99.90;;;;;;5016863;28;20461;-70
2022/10/09 04:39:22;;;;;;;3.85;3.10;;;7.10;99.90;;;;;;5033850;28;20091;-70
2022/10/09 04:41:47;;;;;;;12.23;3.28;;;7.10;99.90;;;;;;5026636;28;20063;-70
2022/10/09 04:44:13;;;;;;;5.63;3.75;;;7.00;99.90;;;;;;5033409;28;20025;-70
2022/10/09 04:46:38;;;;;;;5.50;3.08;;;6.90;99.90;;;;;;5016226;28;20036;-70
2022/10/09 04:49:04;;;;;;;5.22;3.78;;;6.90;99.90;;;;;;5019209;28;20021;-70
2022/10/09 04:51:29;;;;;;;7.25;3.72;;;6.80;99.90;;;;;;5016004;28;20022;-70
2022/10/09 04:53:56;;;;;;;8.00;3.53;;;6.80;99.90;;;;;;5029316;28;20021;-70
2022/10/09 04:56:22;;;;;;;5.45;3.80;;;6.70;99.90;;;;;;5016046;28;20029;-70
2022/10/09 04:58:48;;;;;;;5.90;3.55;;;6.70;99.90;;;;;;5015946;28;20033;-70
2022/10/09 05:01:20;;;;;;;5.13;3.20;;;6.80;99.90;;;;;;5036346;28;20095;-69
2022/10/09 05:03:46;;;;;;;5.30;3.42;;;6.80;99.90;;;;;;5016209;28;20133;-70
2022/10/09 05:06:13;;;;;;;4.68;3.20;;;7.00;99.90;;;;;;5015221;28;20092;-70
2022/10/09 05:08:39;;;;;;;7.07;3.53;;;7.00;99.90;;;;;;5034416;28;20025;-70
2022/10/09 05:11:07;;;;;;;6.45;3.50;;;7.00;99.90;;;;;;5033422;28;20052;-70
2022/10/09 05:13:36;;;;;;;4.22;3.33;;;6.90;99.90;;;;;;5015692;28;20124;-70
2022/10/09 05:16:03;;;;;;;6.95;3.13;;;7.00;99.90;;;;;;5033553;28;20030;-70
2022/10/09 05:18:29;;;;;;;9.02;3.45;;;7.00;99.90;;;;;;5045446;28;20087;-70
2022/10/09 05:20:55;;;;;;;5.97;3.30;;;6.90;99.90;;;;;;5053474;28;20025;-70
2022/10/09 05:23:20;;;;;;;5.78;3.35;;;6.90;99.90;;;;;;5051778;28;20053;-69
2022/10/09 05:25:56;;;;;;;5.80;3.78;;;6.90;99.90;;;;;;5033168;28;20022;-69
2022/10/09 05:28:22;;;;;;;12.07;3.83;;;6.80;99.90;;;;;;5015562;28;20021;-70
2022/10/09 05:30:49;;;;;;;5.97;3.45;;;6.70;99.90;;;;;;5015854;28;20044;-70
2022/10/09 05:33:15;;;;;;;8.82;3.33;;;6.60;99.90;;;;;;5015492;28;20120;-70
2022/10/09 05:35:40;;;;;;;7.00;3.47;;;6.60;99.90;;;;;;5015911;28;20071;-70
2022/10/09 05:38:06;;;;;;;5.13;3.58;;;6.60;99.90;;;;;;5033155;28;20022;-70
2022/10/09 05:40:31;;;;;;;5.55;3.10;;;6.60;99.90;;;;;;5015052;28;20037;-70
2022/10/09 05:42:57;;;;;;;10.52;3.95;;;6.50;99.90;;;;;;5016307;28;20033;-70
2022/10/09 05:45:22;;;;;;;5.50;3.08;;;6.50;99.90;;;;;;5015332;28;20048;-70
2022/10/09 05:47:48;;;;;;;7.07;3.88;;;6.40;99.90;;;;;;5015365;28;20033;-70
2022/10/09 05:50:13;;;;;;;4.70;3.25;;;6.40;99.90;;;;;;5015450;28;20024;-70
2022/10/09 05:52:39;;;;;;;6.00;3.92;;;6.40;99.90;;;;;;5015681;28;20017;-70
2022/10/09 05:55:05;;;;;;;5.70;4.00;;;6.50;99.90;;;;;;5015585;28;20025;-70
2022/10/09 05:57:31;;;;;;;6.20;3.92;;;6.60;99.90;;;;;;5045206;28;20029;-70
2022/10/09 05:59:56;;;;;;;10.38;4.20;;;6.70;99.90;;;;;;5035619;28;20032;-70
2022/10/09 06:02:22;;;;;;;4.72;3.45;;;6.80;99.90;;;;;;5034707;28;20033;-69
2022/10/09 06:04:48;;;;;;;15.85;3.45;;;6.80;99.90;;;;;;5052928;28;20037;-69
2022/10/09 06:07:13;;;;;;;5.20;3.05;;;6.80;99.90;;;;;;5053323;28;20025;-69
2022/10/09 06:09:39;;;;;;;6.35;3.75;;;6.70;99.90;;;;;;5034967;28;20024;-70
2022/10/09 06:12:04;;;;;;;5.03;3.40;;;6.70;99.90;;;;;;5034890;28;20111;-70
2022/10/09 06:14:30;;;;;;;5.30;3.55;;;6.70;99.90;;;;;;5034958;28;20092;-70
2022/10/09 06:16:57;;;;;;;3.35;2.83;;;6.90;99.90;;;;;;5049734;28;20026;-70
2022/10/09 06:19:23;;;;;;;9.90;3.65;;;6.90;99.90;;;;;;5032759;28;20120;-69
2022/10/09 06:21:49;;;;;;;4.82;3.22;;;6.80;99.90;;;;;;5032929;28;20145;-70
2022/10/09 06:24:24;;;;;;;8.60;3.15;;;6.80;99.90;;;;;;5033350;28;20037;-70
2022/10/09 06:26:49;;;;;;;4.45;3.08;;;6.80;99.90;;;;;;5052479;28;20100;-70
2022/10/09 06:29:15;;;;;;;5.18;3.40;;;6.90;99.90;;;;;;5035504;28;20107;-70
2022/10/09 06:31:40;;;;;;;8.65;3.42;;;7.00;99.90;;;;;;5038225;28;20032;-70
2022/10/09 06:34:06;;;;;;;7.53;3.30;;;7.00;99.90;;;;;;5038399;28;20017;-70
2022/10/09 06:36:34;;;;;;;4.70;2.90;;;7.10;99.90;;;;;;5056228;28;20025;-70
2022/10/09 06:39:02;;;;;;;4.25;2.70;;;7.00;99.90;;;;;;5056491;28;20028;-70
2022/10/09 06:41:28;;;;;;;3.65;2.75;;;6.90;99.90;;;;;;5021603;28;20029;-70
2022/10/09 06:44:00;;;;;;;3.28;2.53;;;7.10;99.90;;;;;;5023742;28;20025;-69
2022/10/09 06:46:29;;;;;;;4.03;2.80;;;7.00;99.90;;;;;;5020413;28;20026;-69
2022/10/09 06:48:55;;;;;;;3.38;2.50;;;7.00;99.90;;;;;;5038150;28;20021;-70
2022/10/09 06:51:22;;;;;;;5.38;2.70;;;7.00;99.90;;;;;;5056031;28;20031;-70
2022/10/09 06:53:50;;;;;;;3.47;2.63;;;7.00;99.90;;;;;;5038951;28;20043;-70
2022/10/09 06:56:18;;;;;;;3.90;2.75;;;7.00;99.90;;;;;;5039851;28;20025;-69
2022/10/09 06:58:49;;;;;;;4.78;2.67;;;6.90;99.90;;;;;;5055765;28;20028;-70
2022/10/09 07:01:25;;;;;;;;;;;6.80;99.90;;;;;;5026342;28;20079;-69
2022/10/09 07:03:54;;;;;;;4.70;2.85;;;6.80;99.90;;;;;;5034998;28;19930;-69
2022/10/09 07:06:22;;;;;;;5.90;2.85;;;6.90;99.90;;;;;;5037759;28;20044;-70
2022/10/09 07:08:51;;;;;;;3.90;2.67;;;7.00;99.90;;;;;;5037772;28;20123;-70
2022/10/09 07:11:22;;;;;;;3.67;2.33;;;7.00;99.90;;;;;;5021830;28;20029;-70
2022/10/09 07:13:50;;;;;;;2.95;2.38;;;7.10;99.90;;;;;;5035224;28;20096;-70
2022/10/09 07:16:21;;;;;;;3.65;2.55;;;7.10;99.90;;;;;;5018017;28;20061;-69
2022/10/09 07:18:47;;;;;;;5.20;3.05;;;7.10;99.90;;;;;;5017846;28;20068;-68
2022/10/09 07:21:13;;;;;;;3.25;2.53;;;7.00;99.90;;;;;;5035780;28;20061;-68
2022/10/09 07:23:38;;;;;;;5.00;2.92;;;7.10;99.90;;;;;;5017774;28;20056;-68
2022/10/09 07:26:10;;;;;;;9.35;2.65;;;7.10;99.90;;;;;;5017278;28;20017;-68
2022/10/09 07:28:36;;;;;;;;;;;7.20;99.90;;;;;;5035669;28;20043;-68
2022/10/09 07:31:03;;;;;;;5.85;2.95;;;7.30;99.90;;;;;;5035054;28;19966;-68
2022/10/09 07:33:28;;;;;;;3.08;2.42;;;7.50;99.90;;;;;;5054737;28;20540;-71
2022/10/09 07:35:55;;;;;;;4.55;2.83;;;7.60;99.90;;;;;;5040390;28;20083;-71
2022/10/09 07:38:21;;;;;;;4.00;2.70;;;7.80;99.90;;;;;;5040045;28;20029;-71
2022/10/09 07:40:47;;;;;;;3.72;2.92;;;7.90;99.90;;;;;;5050546;28;20021;-70
2022/10/09 07:43:13;;;;;;;5.95;3.60;;;7.80;99.90;;;;;;5035288;28;20038;-70
2022/10/09 07:45:39;;;;;;;5.70;2.60;;;7.80;99.90;;;;;;5017239;28;20029;-70
2022/10/09 07:48:04;;;;;;;3.97;3.22;;;7.90;99.90;;;;;;5020583;28;20025;-71
2022/10/09 07:50:30;;;;;;;4.07;2.72;;;8.00;99.90;;;;;;5020658;28;20026;-71
2022/10/09 07:52:55;;;;;;;5.15;3.25;;;8.10;99.90;;;;;;5040010;28;20021;-71
2022/10/09 07:55:21;;;;;;;8.93;3.30;;;8.20;99.90;;;;;;5054000;28;20025;-71
2022/10/09 07:57:46;;;;;;;4.63;3.28;;;8.10;99.90;;;;;;5037283;28;20025;-71
2022/10/09 08:00:12;;;;;;;3.50;2.83;;;8.20;99.90;;;;;;5037730;28;20103;-70
2022/10/09 08:02:37;;;;;;;4.30;3.40;;;8.30;99.90;;;;;;5043418;28;20021;-70
2022/10/09 08:05:03;;;;;;;5.88;3.20;;;8.30;99.90;;;;;;5037078;28;20059;-70
2022/10/09 08:07:29;;;;;;;7.40;3.03;;;8.40;99.90;;;;;;5055235;28;20021;-70
2022/10/09 08:09:54;;;;;;;4.97;3.25;;;8.40;99.90;;;;;;5036808;28;20166;-70
2022/10/09 08:12:20;;;;;;;4.95;3.20;;;8.40;99.90;;;;;;5037102;28;20047;-70
2022/10/09 08:14:47;;;;;;;4.80;3.28;;;8.50;99.90;;;;;;5038230;28;20435;-70
2022/10/09 08:17:14;;;;;;;6.97;3.08;;;8.60;99.90;;;;;;5055337;28;20108;-70
2022/10/09 08:19:39;;;;;;;6.30;3.20;;;8.70;99.90;;;;;;5022100;28;20026;-70
2022/10/09 08:22:05;;;;;;;5.05;3.63;;;8.70;99.90;;;;;;5017558;28;20079;-70
2022/10/09 08:24:33;;;;;;;6.05;3.33;;;8.70;99.90;;;;;;5034840;28;20033;-70
2022/10/09 08:26:59;;;;;;;4.22;3.20;;;8.90;99.90;;;;;;5017599;28;20108;-70
2022/10/09 08:29:24;;;;;;;4.53;3.40;;;8.90;99.90;;;;;;5020902;28;20504;-70
2022/10/09 08:31:50;;;;;;;5.25;2.60;;;8.90;99.90;;;;;;5030506;28;20108;-70
2022/10/09 08:34:17;;;;;;;5.05;2.90;;;9.10;99.90;;;;;;5034304;28;20018;-70
2022/10/09 08:36:42;;;;;;;5.60;3.15;;;9.20;99.90;;;;;;5017570;28;20051;-70
2022/10/09 08:39:08;;;;;;;4.00;3.00;;;9.30;99.90;;;;;;5017238;28;20029;-70
2022/10/09 08:41:42;;;;;;;5.28;2.85;;;9.50;99.90;;;;;;5031732;28;20623;-70
2022/10/09 08:44:35;;;;;;;7.40;3.63;;;9.50;99.90;;;;;;5028229;28;20089;-70
2022/10/09 08:47:18;;;;;;;6.75;3.33;;;9.60;99.90;;;;;;5033876;28;20036;-70
2022/10/09 08:49:53;;;;;;;11.70;3.45;;;9.70;99.90;;;;;;5016699;28;20026;-70
2022/10/09 08:52:58;;;;;;;6.10;2.80;;;9.80;99.90;;;;;;5016519;28;20048;-70
2022/10/09 08:55:31;;;;;;;6.00;3.35;;;9.90;99.90;;;;;;5016263;28;20021;-72
2022/10/09 08:58:03;;;;;;;4.93;3.10;;;9.90;99.90;;;;;;5034186;28;20018;-71
2022/10/09 09:00:42;;;;;;;4.13;2.58;;;10.00;99.90;;;;;;5017024;28;20033;-71
2022/10/09 09:03:30;;;;;;;5.20;2.75;;;10.00;99.90;;;;;;5016326;28;20124;-71
2022/10/09 09:06:17;;;;;;;5.88;2.92;;;10.10;99.90;;;;;;5019405;28;20068;-72
2022/10/09 09:09:33;;;;;;;4.68;3.30;;;10.20;99.90;;;;;;5033590;28;20029;-71
2022/10/09 09:12:14;;;;;;;6.07;2.88;;;10.30;99.90;;;;;;5017411;28;20037;-69
2022/10/09 09:15:00;;;;;;;4.18;2.58;;;10.30;99.90;;;;;;5035730;28;20021;-69
2022/10/09 09:18:18;;;;;;;3.85;2.90;;;10.50;99.90;;;;;;5026807;28;20026;-69
2022/10/09 09:20:53;;;;;;;4.15;2.78;;;10.60;99.90;;;;;;4918293;29;20396;-70
2022/10/09 09:23:26;;;;;;;4.55;2.75;;;10.70;99.90;;;;;;4921597;29;20034;-71
2022/10/09 09:25:52;;;;;;;3.45;2.38;;;10.90;99.90;;;;;;4937296;29;20035;-71
2022/10/09 09:28:29;;;;;;;4.47;2.90;;;10.90;99.90;;;;;;4937217;29;20054;-70
2022/10/09 09:31:16;;;;;;;3.92;2.35;;;11.00;99.90;;;;;;4937027;29;20058;-70
2022/10/09 09:34:08;;;;;;;3.85;2.55;;;11.20;99.90;;;;;;4937257;29;20046;-70
2022/10/09 09:36:41;;;;;;;3.17;2.88;;;11.40;99.90;;;;;;4937107;29;20027;-70
2022/10/09 09:39:10;;;;;;;3.72;2.85;;;11.40;99.90;;;;;;4937402;29;20031;-70
2022/10/09 09:41:35;;;;;;;4.30;3.08;;;11.50;99.90;;;;;;4953133;29;20062;-70
2022/10/09 09:44:01;;;;;;;3.53;2.97;;;11.50;99.90;;;;;;4953195;29;20098;-70
2022/10/09 09:46:29;;;;;;;10.52;2.83;;;11.70;99.90;;;;;;4952854;29;20083;-70
2022/10/09 09:48:55;;;;;;;4.57;2.70;;;11.80;99.90;;;;;;4954031;29;20023;-71
2022/10/09 09:51:26;;;;;;;6.53;2.50;;;11.80;99.90;;;;;;4973304;28;20084;-71
2022/10/09 09:53:58;;;;;;;2.60;2.40;;;11.90;99.90;;;;;;5019637;28;20030;-72
2022/10/09 09:56:33;;;;;;;;;;;12.10;99.90;;;;;;5053794;28;20029;-71
2022/10/09 09:58:59;;;;;;;4.25;2.78;;;12.40;99.90;;;;;;5040214;28;19979;-70
2022/10/09 10:01:29;;;;;;;4.47;2.38;;;12.60;99.90;;;;;;5043697;28;20104;-70
2022/10/09 10:04:01;;;;;;;4.75;2.22;;;12.70;99.90;;;;;;5022510;28;20037;-70
2022/10/09 10:06:31;;;;;;;5.60;2.50;;;12.70;99.90;;;;;;5036950;28;20025;-70
2022/10/09 10:09:15;;;;;;;5.05;2.80;;;12.90;99.90;;;;;;5019352;28;20052;-71
2022/10/09 10:11:57;;;;;;;4.32;2.20;;;13.10;99.90;;;;;;5048604;28;20021;-71
2022/10/09 10:14:47;;;;;;;5.53;2.58;;;13.30;99.90;;;;;;5051185;28;20029;-70
2022/10/09 10:17:27;;;;;;;5.22;2.20;;;13.60;99.90;;;;;;5038234;28;20087;-70
2022/10/09 10:19:53;;;;;;;4.80;1.70;;;13.70;99.90;;;;;;5057362;28;20087;-70
2022/10/09 10:22:24;;;;;;;5.20;2.03;;;14.00;99.90;;;;;;5038680;28;20033;-72
2022/10/09 10:24:53;;;;;;;7.20;2.28;;;14.20;99.90;;;;;;5038214;28;20025;-70
2022/10/09 10:27:21;;;;;;;3.60;2.08;;;14.30;99.90;;;;;;5018987;28;20060;-71
2022/10/09 10:29:50;;;;;;;6.35;1.80;;;14.40;99.90;;;;;;5018328;28;20034;-71
2022/10/09 10:32:33;;;;;;;6.40;1.80;;;14.50;99.90;;;;;;5070835;23;20033;-73
2022/10/09 10:35:09;;;;;;;4.80;2.00;;;14.70;99.90;;;;;;5033827;28;20075;-73
2022/10/09 10:38:08;;;;;;;2.85;1.70;;;14.80;99.90;;;;;;5018734;28;20035;-75
2022/10/09 10:40:41;;;;;;;3.85;2.10;;;14.80;99.90;;;;;;5036150;28;20025;-75
2022/10/09 10:43:09;;;;;;;4.90;2.53;;;14.80;99.90;;;;;;5035978;28;20025;-76
2022/10/09 10:45:41;;;;;;;5.00;1.92;;;15.00;99.90;;;;;;5036112;28;20431;-76
2022/10/09 10:48:25;;;;;;;6.28;1.60;;;15.10;99.90;;;;;;5036138;28;20021;-76
2022/10/09 10:51:09;;;;;;;3.83;1.58;;;15.20;99.90;;;;;;5018602;28;20120;-76
2022/10/09 10:54:17;;;;;;;2.72;1.70;;;15.30;99.90;;;;;;5036094;28;20018;-76
2022/10/09 10:57:22;;;;;;;1.83;1.52;;;15.50;99.90;;;;;;5018836;28;20033;-76
2022/10/09 11:00:08;;;;;;;3.15;1.45;;;15.80;99.90;;;;;;5018130;28;20029;-76
2022/10/09 11:02:52;;;;;;;4.72;1.08;;;16.10;99.90;;;;;;5035812;28;20076;-76
2022/10/09 11:05:37;;;;;;;3.83;1.23;;;16.40;99.90;;;;;;5036078;28;20026;-76
2022/10/09 11:08:40;;;;;;;2.42;1.13;;;16.70;99.90;;;;;;5035724;28;20044;-76
2022/10/09 11:11:19;;;;;;;3.38;1.38;;;17.00;99.90;;;;;;5034367;28;20060;-76
2022/10/09 11:14:11;;;;;;;4.35;1.15;;;17.20;99.90;;;;;;5018008;28;20032;-76
2022/10/09 11:16:47;;;;;;;2.35;1.33;;;17.30;99.90;;;;;;5035349;28;20067;-76
2022/10/09 11:19:46;;;;;;;4.88;1.17;;;17.30;99.90;;;;;;5018163;28;20080;-76
2022/10/09 11:22:31;;;;;;;2.28;0.80;;;17.30;99.90;;;;;;5018148;28;20021;-76
2022/10/09 11:25:29;;;;;;;2.88;1.00;;;17.40;99.90;;;;;;4978829;28;20060;-76
2022/10/09 11:27:58;;;;;;;3.22;1.20;;;17.30;99.90;;;;;;5034174;28;20080;-76
2022/10/09 11:30:25;;;;;;;3.70;1.30;;;17.30;99.90;;;;;;5050617;28;20108;-76
2022/10/09 11:32:57;;;;;;;1.05;0.90;;;17.80;99.90;;;;;;5039032;28;20038;-76
2022/10/09 11:35:28;;;;;;;3.03;0.77;;;17.90;99.90;;;;;;5035309;28;20076;-76
2022/10/09 11:38:24;;;;;;;2.25;0.80;;;17.90;99.90;;;;;;5035299;28;20499;-76
2022/10/09 11:40:50;;;;;;;3.05;1.20;;;17.80;99.90;;;;;;5034676;28;20284;-76
2022/10/09 11:43:25;;;;;;;3.28;0.73;;;18.00;99.90;;;;;;5018117;28;20358;-76
2022/10/09 11:45:57;;;;;;;4.85;1.10;;;17.90;99.90;;;;;;5018116;28;20021;-74
2022/10/09 11:48:50;;;;;;;4.75;1.00;;;17.90;99.90;;;;;;5035068;28;20052;-73
2022/10/09 11:51:45;;;;;;;4.28;1.00;;;17.80;99.90;;;;;;5035059;28;20036;-74
2022/10/09 11:54:20;;;;;;;3.47;0.80;;;17.80;99.90;;;;;;5017759;28;20022;-73
2022/10/09 11:56:53;;;;;;;1.60;0.63;;;17.60;99.90;;;;;;5017164;28;20395;-73
2022/10/09 11:59:41;;;;;;;5.65;1.02;;;17.60;99.90;;;;;;5017371;28;20025;-73
2022/10/09 12:02:33;;;;;;;3.78;0.80;;;17.90;99.90;;;;;;5017431;28;20033;-74
2022/10/09 12:04:59;;;;;;;1.88;0.80;;;18.10;99.90;;;;;;5013777;28;20033;-74
2022/10/09 12:07:34;;;;;;;2.05;0.80;;;18.20;99.90;;;;;;5034925;28;20083;-74
2022/10/09 12:10:06;;;;;;;3.13;0.80;;;18.40;99.90;;;;;;5016419;28;20033;-74
2022/10/09 12:12:32;;;;;;;1.98;0.75;;;18.40;99.90;;;;;;5017333;28;20089;-73
2022/10/09 12:15:23;;;;;;;1.88;0.65;;;18.40;99.90;;;;;;5034926;28;20079;-73
2022/10/09 12:17:49;;;;;;;4.95;0.90;;;19.20;99.90;;;;;;5017705;28;20461;-73
2022/10/09 12:20:21;;;;;;;1.92;0.88;;;19.60;97.30;;;;;;5034874;28;20025;-73
2022/10/09 12:22:52;;;;;;;2.75;0.70;;;19.80;97.80;;;;;;5016820;28;20418;-74
2022/10/09 12:25:39;;;;;;;0.82;0.75;;;19.90;95.80;;;;;;5048911;28;20032;-74
2022/10/09 12:28:13;;;;;;;4.85;1.17;;;19.30;97.00;;;;;;5035752;28;20487;-74
2022/10/09 12:30:40;;;;;;;0.85;0.60;;;19.00;97.30;;;;;;5054263;28;20025;-73
2022/10/09 12:33:26;;;;;;;4.95;0.75;;;19.00;97.60;;;;;;5037042;28;20035;-73
2022/10/09 12:36:05;;;;;;;1.65;0.70;;;19.00;97.10;;;;;;5036732;28;20075;-74
2022/10/09 12:38:31;;;;;;;2.00;0.60;;;19.30;95.20;;;;;;5037347;28;20031;-73
2022/10/09 12:41:00;;;;;;;1.23;0.60;;;19.30;96.00;;;;;;5036081;28;20025;-74
2022/10/09 12:43:26;;;;;;;3.88;0.57;;;19.20;95.10;;;;;;5036375;28;20029;-74
2022/10/09 12:45:53;;;;;;;3.15;0.80;;;19.20;95.20;;;;;;5035927;28;20032;-74
2022/10/09 12:48:21;;;;;;;4.18;0.80;;;19.60;94.50;;;;;;5053855;28;20025;-74
2022/10/09 12:50:48;;;;;;;1.67;0.90;;;19.30;94.70;;;;;;5035941;28;20074;-74
2022/10/09 12:53:25;;;;;;;1.92;0.57;;;19.10;94.60;;;;;;5036251;28;20116;-74
2022/10/09 12:56:02;;;;;;;3.90;1.33;;;19.20;95.10;;;;;;5036643;28;20032;-74
2022/10/09 12:58:34;;;;;;;2.10;0.85;;;19.40;96.00;;;;;;5053701;28;20051;-75
2022/10/09 13:01:03;;;;;;;3.40;0.95;;;20.30;94.50;;;;;;5035595;28;20112;-75
2022/10/09 13:03:33;;;;;;;3.85;1.48;;;20.70;94.00;;;;;;5035677;28;20036;-74
2022/10/09 13:06:00;;;;;;;4.82;0.80;;;20.50;93.70;;;;;;5053704;28;20082;-74
2022/10/09 13:08:31;;;;;;;3.15;1.13;;;20.20;93.80;;;;;;5035689;28;20025;-74
2022/10/09 13:11:39;;;;;;;5.05;1.00;;;20.20;93.40;;;;;;5037282;28;20025;-77
2022/10/09 13:14:21;;;;;;;2.90;0.88;;;20.30;93.10;;;;;;4955150;29;20067;-77